sensor_id;sensor_type;location;lat;lon;timestamp;P1;durP1;ratioP1;P2;durP2;ratioP2
20014;SDS011;61787;42.022;23.078;2023-02-07T00:00:05;5.72;;;3.80;;
20014;SDS011;61787;42.022;23.078;2023-02-07T00:01:11;5.65;;;3.67;;
20014;SDS011;61787;42.022;23.078;2023-02-07T00:02:14;9.52;;;5.43;;
20014;SDS011;61787;42.022;23.078;2023-02-07T00:03:16;5.00;;;3.55;;
20014;SDS011;61787;42.022;23.078;2023-02-07T00:04:18;7.63;;;4.00;;
20014;SDS011;61787;42.022;23.078;2023-02-07T00:05:19;5.88;;;3.30;;
20014;SDS011;61787;42.022;23.078;2023-02-07T00:06:22;6.15;;;3.50;;
20014;SDS011;61787;42.022;23.078;2023-02-07T00:07:26;10.82;;;5.15;;
20014;SDS011;61787;42.022;23.078;2023-02-07T00:08:28;13.10;;;5.60;;
20014;SDS011;61787;42.022;23.078;2023-02-07T00:09:29;31.35;;;11.23;;
20014;SDS011;61787;42.022;23.078;2023-02-07T00:10:31;61.50;;;19.52;;
20014;SDS011;61787;42.022;23.078;2023-02-07T00:11:34;28.83;;;9.23;;
20014;SDS011;61787;42.022;23.078;2023-02-07T00:12:36;11.27;;;4.78;;
20014;SDS011;61787;42.022;23.078;2023-02-07T00:13:38;7.53;;;4.13;;
20014;SDS011;61787;42.022;23.078;2023-02-07T00:14:40;7.45;;;4.22;;
20014;SDS011;61787;42.022;23.078;2023-02-07T00:15:41;7.80;;;4.28;;
20014;SDS011;61787;42.022;23.078;2023-02-07T00:16:43;7.25;;;3.40;;
20014;SDS011;61787;42.022;23.078;2023-02-07T00:17:44;7.03;;;3.63;;
20014;SDS011;61787;42.022;23.078;2023-02-07T00:18:46;4.90;;;3.42;;
20014;SDS011;61787;42.022;23.078;2023-02-07T00:19:48;5.68;;;3.45;;
20014;SDS011;61787;42.022;23.078;2023-02-07T00:20:59;6.15;;;3.00;;
20014;SDS011;61787;42.022;23.078;2023-02-07T00:22:02;6.57;;;3.28;;
20014;SDS011;61787;42.022;23.078;2023-02-07T00:23:04;5.75;;;3.45;;
20014;SDS011;61787;42.022;23.078;2023-02-07T00:24:05;6.63;;;3.33;;
20014;SDS011;61787;42.022;23.078;2023-02-07T00:25:08;4.20;;;2.85;;
20014;SDS011;61787;42.022;23.078;2023-02-07T00:26:10;5.00;;;2.90;;
20014;SDS011;61787;42.022;23.078;2023-02-07T00:27:13;6.03;;;3.47;;
20014;SDS011;61787;42.022;23.078;2023-02-07T00:28:15;5.72;;;3.53;;
20014;SDS011;61787;42.022;23.078;2023-02-07T00:29:19;4.63;;;3.40;;
20014;SDS011;61787;42.022;23.078;2023-02-07T00:30:21;4.00;;;2.95;;
20014;SDS011;61787;42.022;23.078;2023-02-07T00:31:32;6.55;;;3.78;;
20014;SDS011;61787;42.022;23.078;2023-02-07T00:32:35;6.22;;;3.53;;
20014;SDS011;61787;42.022;23.078;2023-02-07T00:33:37;6.20;;;3.42;;
20014;SDS011;61787;42.022;23.078;2023-02-07T00:34:40;6.50;;;3.92;;
20014;SDS011;61787;42.022;23.078;2023-02-07T00:35:42;6.40;;;4.20;;
20014;SDS011;61787;42.022;23.078;2023-02-07T00:36:44;6.88;;;4.10;;
20014;SDS011;61787;42.022;23.078;2023-02-07T00:37:45;7.28;;;3.55;;
20014;SDS011;61787;42.022;23.078;2023-02-07T00:38:47;5.72;;;2.88;;
20014;SDS011;61787;42.022;23.078;2023-02-07T00:39:49;4.57;;;3.17;;
20014;SDS011;61787;42.022;23.078;2023-02-07T00:40:51;6.20;;;3.25;;
20014;SDS011;61787;42.022;23.078;2023-02-07T00:41:52;8.18;;;3.58;;
20014;SDS011;61787;42.022;23.078;2023-02-07T00:42:54;4.53;;;3.17;;
20014;SDS011;61787;42.022;23.078;2023-02-07T00:43:56;5.13;;;3.13;;
20014;SDS011;61787;42.022;23.078;2023-02-07T00:44:58;5.43;;;3.30;;
20014;SDS011;61787;42.022;23.078;2023-02-07T00:46:00;5.70;;;3.17;;
20014;SDS011;61787;42.022;23.078;2023-02-07T00:47:03;4.53;;;3.33;;
20014;SDS011;61787;42.022;23.078;2023-02-07T00:48:05;4.95;;;3.22;;
20014;SDS011;61787;42.022;23.078;2023-02-07T00:49:06;5.38;;;3.08;;
20014;SDS011;61787;42.022;23.078;2023-02-07T00:50:08;4.22;;;2.67;;
20014;SDS011;61787;42.022;23.078;2023-02-07T00:51:10;4.15;;;3.03;;
20014;SDS011;61787;42.022;23.078;2023-02-07T00:52:13;3.85;;;2.58;;
20014;SDS011;61787;42.022;23.078;2023-02-07T00:53:15;5.22;;;3.03;;
20014;SDS011;61787;42.022;23.078;2023-02-07T00:54:17;4.85;;;2.70;;
20014;SDS011;61787;42.022;23.078;2023-02-07T00:55:19;4.32;;;2.72;;
20014;SDS011;61787;42.022;23.078;2023-02-07T00:56:21;3.92;;;2.47;;
20014;SDS011;61787;42.022;23.078;2023-02-07T00:57:24;3.65;;;2.55;;
20014;SDS011;61787;42.022;23.078;2023-02-07T00:58:25;3.05;;;2.35;;
20014;SDS011;61787;42.022;23.078;2023-02-07T00:59:27;3.42;;;2.53;;
20014;SDS011;61787;42.022;23.078;2023-02-07T01:00:28;6.78;;;3.05;;
20014;SDS011;61787;42.022;23.078;2023-02-07T01:01:30;3.75;;;2.85;;
20014;SDS011;61787;42.022;23.078;2023-02-07T01:02:32;4.18;;;3.10;;
20014;SDS011;61787;42.022;23.078;2023-02-07T01:03:34;4.32;;;3.03;;
20014;SDS011;61787;42.022;23.078;2023-02-07T01:04:35;4.43;;;2.75;;
20014;SDS011;61787;42.022;23.078;2023-02-07T01:05:38;4.47;;;3.00;;
20014;SDS011;61787;42.022;23.078;2023-02-07T01:06:40;3.88;;;2.95;;
20014;SDS011;61787;42.022;23.078;2023-02-07T01:07:42;5.03;;;3.53;;
20014;SDS011;61787;42.022;23.078;2023-02-07T01:08:43;6.38;;;3.38;;
20014;SDS011;61787;42.022;23.078;2023-02-07T01:09:45;4.78;;;3.22;;
20014;SDS011;61787;42.022;23.078;2023-02-07T01:10:47;5.10;;;3.67;;
20014;SDS011;61787;42.022;23.078;2023-02-07T01:11:49;5.25;;;3.40;;
20014;SDS011;61787;42.022;23.078;2023-02-07T01:12:50;6.18;;;3.35;;
20014;SDS011;61787;42.022;23.078;2023-02-07T01:13:53;6.22;;;3.65;;
20014;SDS011;61787;42.022;23.078;2023-02-07T01:14:54;5.43;;;3.70;;
20014;SDS011;61787;42.022;23.078;2023-02-07T01:15:56;5.93;;;3.30;;
20014;SDS011;61787;42.022;23.078;2023-02-07T01:16:58;3.47;;;3.00;;
20014;SDS011;61787;42.022;23.078;2023-02-07T01:17:59;6.03;;;3.13;;
20014;SDS011;61787;42.022;23.078;2023-02-07T01:19:05;5.15;;;3.60;;
20014;SDS011;61787;42.022;23.078;2023-02-07T01:20:08;4.15;;;3.17;;
20014;SDS011;61787;42.022;23.078;2023-02-07T01:21:14;4.55;;;3.42;;
20014;SDS011;61787;42.022;23.078;2023-02-07T01:22:17;5.40;;;3.90;;
20014;SDS011;61787;42.022;23.078;2023-02-07T01:23:19;5.45;;;3.70;;
20014;SDS011;61787;42.022;23.078;2023-02-07T01:24:20;8.05;;;4.15;;
20014;SDS011;61787;42.022;23.078;2023-02-07T01:25:22;6.25;;;4.07;;
20014;SDS011;61787;42.022;23.078;2023-02-07T01:26:24;6.70;;;3.80;;
20014;SDS011;61787;42.022;23.078;2023-02-07T01:27:26;6.70;;;3.83;;
20014;SDS011;61787;42.022;23.078;2023-02-07T01:28:28;5.50;;;4.13;;
20014;SDS011;61787;42.022;23.078;2023-02-07T01:29:29;6.82;;;3.95;;
20014;SDS011;61787;42.022;23.078;2023-02-07T01:30:31;9.25;;;5.07;;
20014;SDS011;61787;42.022;23.078;2023-02-07T01:31:33;5.95;;;3.80;;
20014;SDS011;61787;42.022;23.078;2023-02-07T01:32:35;6.30;;;4.28;;
20014;SDS011;61787;42.022;23.078;2023-02-07T01:33:36;6.47;;;4.15;;
20014;SDS011;61787;42.022;23.078;2023-02-07T01:34:38;7.57;;;4.53;;
20014;SDS011;61787;42.022;23.078;2023-02-07T01:35:40;6.40;;;4.18;;
20014;SDS011;61787;42.022;23.078;2023-02-07T01:36:42;7.07;;;4.45;;
20014;SDS011;61787;42.022;23.078;2023-02-07T01:37:44;6.20;;;4.00;;
20014;SDS011;61787;42.022;23.078;2023-02-07T01:38:45;7.78;;;4.97;;
20014;SDS011;61787;42.022;23.078;2023-02-07T01:39:47;6.43;;;4.35;;
20014;SDS011;61787;42.022;23.078;2023-02-07T01:40:48;8.82;;;5.68;;
20014;SDS011;61787;42.022;23.078;2023-02-07T01:41:50;9.00;;;4.72;;
20014;SDS011;61787;42.022;23.078;2023-02-07T01:42:51;9.35;;;5.22;;
20014;SDS011;61787;42.022;23.078;2023-02-07T01:45:45;6.72;;;4.45;;
20014;SDS011;61787;42.022;23.078;2023-02-07T01:46:25;7.00;;;3.97;;
20014;SDS011;61787;42.022;23.078;2023-02-07T01:47:28;7.78;;;4.47;;
20014;SDS011;61787;42.022;23.078;2023-02-07T01:48:31;6.88;;;4.43;;
20014;SDS011;61787;42.022;23.078;2023-02-07T01:49:35;5.93;;;4.28;;
20014;SDS011;61787;42.022;23.078;2023-02-07T01:50:38;6.45;;;3.78;;
20014;SDS011;61787;42.022;23.078;2023-02-07T01:51:46;6.45;;;3.72;;
20014;SDS011;61787;42.022;23.078;2023-02-07T01:52:52;8.27;;;4.25;;
20014;SDS011;61787;42.022;23.078;2023-02-07T01:53:55;7.70;;;4.47;;
20014;SDS011;61787;42.022;23.078;2023-02-07T01:55:03;6.47;;;3.55;;
20014;SDS011;61787;42.022;23.078;2023-02-07T01:56:09;5.05;;;3.10;;
20014;SDS011;61787;42.022;23.078;2023-02-07T01:57:29;9.77;;;3.55;;
20014;SDS011;61787;42.022;23.078;2023-02-07T01:58:32;6.18;;;3.50;;
20014;SDS011;61787;42.022;23.078;2023-02-07T01:59:34;6.38;;;3.53;;
20014;SDS011;61787;42.022;23.078;2023-02-07T02:00:39;9.75;;;3.65;;
20014;SDS011;61787;42.022;23.078;2023-02-07T02:01:41;7.80;;;4.30;;
20014;SDS011;61787;42.022;23.078;2023-02-07T02:02:44;7.05;;;4.13;;
20014;SDS011;61787;42.022;23.078;2023-02-07T02:03:46;9.88;;;4.40;;
20014;SDS011;61787;42.022;23.078;2023-02-07T02:04:51;8.63;;;4.30;;
20014;SDS011;61787;42.022;23.078;2023-02-07T02:05:54;9.85;;;4.70;;
20014;SDS011;61787;42.022;23.078;2023-02-07T02:06:57;13.73;;;6.25;;
20014;SDS011;61787;42.022;23.078;2023-02-07T02:07:58;7.10;;;4.32;;
20014;SDS011;61787;42.022;23.078;2023-02-07T02:09:00;10.27;;;5.07;;
20014;SDS011;61787;42.022;23.078;2023-02-07T02:10:12;7.45;;;4.20;;
20014;SDS011;61787;42.022;23.078;2023-02-07T02:11:20;9.73;;;4.95;;
20014;SDS011;61787;42.022;23.078;2023-02-07T02:13:39;7.05;;;3.95;;
20014;SDS011;61787;42.022;23.078;2023-02-07T02:17:48;7.53;;;3.80;;
20014;SDS011;61787;42.022;23.078;2023-02-07T02:22:48;5.18;;;3.53;;
20014;SDS011;61787;42.022;23.078;2023-02-07T02:37:27;6.28;;;3.20;;
20014;SDS011;61787;42.022;23.078;2023-02-07T02:38:33;4.03;;;2.80;;
20014;SDS011;61787;42.022;23.078;2023-02-07T02:39:42;6.22;;;3.80;;
20014;SDS011;61787;42.022;23.078;2023-02-07T02:41:05;5.57;;;3.33;;
20014;SDS011;61787;42.022;23.078;2023-02-07T02:44:43;5.97;;;3.50;;
20014;SDS011;61787;42.022;23.078;2023-02-07T02:46:00;4.47;;;3.17;;
20014;SDS011;61787;42.022;23.078;2023-02-07T02:47:07;4.75;;;3.30;;
20014;SDS011;61787;42.022;23.078;2023-02-07T02:48:10;3.88;;;3.00;;
20014;SDS011;61787;42.022;23.078;2023-02-07T02:49:13;5.90;;;3.30;;
20014;SDS011;61787;42.022;23.078;2023-02-07T02:50:18;5.75;;;3.40;;
20014;SDS011;61787;42.022;23.078;2023-02-07T02:51:22;6.50;;;3.53;;
20014;SDS011;61787;42.022;23.078;2023-02-07T02:52:25;7.57;;;3.35;;
20014;SDS011;61787;42.022;23.078;2023-02-07T02:53:52;6.25;;;3.70;;
20014;SDS011;61787;42.022;23.078;2023-02-07T02:54:54;4.88;;;3.60;;
20014;SDS011;61787;42.022;23.078;2023-02-07T02:56:07;10.65;;;3.88;;
20014;SDS011;61787;42.022;23.078;2023-02-07T02:58:46;6.03;;;3.35;;
20014;SDS011;61787;42.022;23.078;2023-02-07T02:59:52;4.35;;;3.15;;
20014;SDS011;61787;42.022;23.078;2023-02-07T03:02:35;7.40;;;3.40;;
20014;SDS011;61787;42.022;23.078;2023-02-07T03:06:53;5.43;;;3.78;;
20014;SDS011;61787;42.022;23.078;2023-02-07T03:09:16;10.88;;;3.75;;
20014;SDS011;61787;42.022;23.078;2023-02-07T03:11:48;6.50;;;3.85;;
20014;SDS011;61787;42.022;23.078;2023-02-07T03:13:02;6.03;;;3.53;;
20014;SDS011;61787;42.022;23.078;2023-02-07T03:14:30;7.18;;;3.83;;
20014;SDS011;61787;42.022;23.078;2023-02-07T03:17:52;6.95;;;4.18;;
20014;SDS011;61787;42.022;23.078;2023-02-07T03:19:06;6.53;;;3.80;;
20014;SDS011;61787;42.022;23.078;2023-02-07T03:21:48;4.93;;;3.15;;
20014;SDS011;61787;42.022;23.078;2023-02-07T03:22:55;6.70;;;3.40;;
20014;SDS011;61787;42.022;23.078;2023-02-07T03:23:59;6.00;;;3.35;;
20014;SDS011;61787;42.022;23.078;2023-02-07T03:25:04;3.95;;;2.60;;
20014;SDS011;61787;42.022;23.078;2023-02-07T03:26:06;5.32;;;2.92;;
20014;SDS011;61787;42.022;23.078;2023-02-07T03:27:11;4.75;;;2.63;;
20014;SDS011;61787;42.022;23.078;2023-02-07T03:28:16;3.60;;;2.47;;
20014;SDS011;61787;42.022;23.078;2023-02-07T03:29:19;3.85;;;2.85;;
20014;SDS011;61787;42.022;23.078;2023-02-07T03:30:26;7.95;;;2.80;;
20014;SDS011;61787;42.022;23.078;2023-02-07T03:31:30;4.35;;;2.65;;
20014;SDS011;61787;42.022;23.078;2023-02-07T03:32:37;3.95;;;2.45;;
20014;SDS011;61787;42.022;23.078;2023-02-07T03:33:42;5.28;;;2.67;;
20014;SDS011;61787;42.022;23.078;2023-02-07T03:34:58;4.47;;;2.53;;
20014;SDS011;61787;42.022;23.078;2023-02-07T03:36:16;6.50;;;3.65;;
20014;SDS011;61787;42.022;23.078;2023-02-07T03:37:24;8.32;;;3.95;;
20014;SDS011;61787;42.022;23.078;2023-02-07T03:38:29;8.07;;;3.20;;
20014;SDS011;61787;42.022;23.078;2023-02-07T03:39:31;7.05;;;3.10;;
20014;SDS011;61787;42.022;23.078;2023-02-07T03:40:43;4.90;;;3.33;;
20014;SDS011;61787;42.022;23.078;2023-02-07T03:41:48;5.90;;;3.40;;
20014;SDS011;61787;42.022;23.078;2023-02-07T03:43:01;5.72;;;3.20;;
20014;SDS011;61787;42.022;23.078;2023-02-07T03:44:06;5.60;;;3.05;;
20014;SDS011;61787;42.022;23.078;2023-02-07T03:45:13;5.35;;;3.35;;
20014;SDS011;61787;42.022;23.078;2023-02-07T03:46:17;6.95;;;3.38;;
20014;SDS011;61787;42.022;23.078;2023-02-07T03:47:19;4.32;;;2.67;;
20014;SDS011;61787;42.022;23.078;2023-02-07T03:48:21;4.05;;;2.83;;
20014;SDS011;61787;42.022;23.078;2023-02-07T03:49:23;5.78;;;3.30;;
20014;SDS011;61787;42.022;23.078;2023-02-07T03:50:24;4.75;;;3.03;;
20014;SDS011;61787;42.022;23.078;2023-02-07T03:51:26;3.97;;;3.00;;
20014;SDS011;61787;42.022;23.078;2023-02-07T03:52:27;4.60;;;3.13;;
20014;SDS011;61787;42.022;23.078;2023-02-07T03:53:29;5.47;;;2.92;;
20014;SDS011;61787;42.022;23.078;2023-02-07T03:54:30;4.22;;;3.00;;
20014;SDS011;61787;42.022;23.078;2023-02-07T03:55:32;4.80;;;3.03;;
20014;SDS011;61787;42.022;23.078;2023-02-07T03:56:34;4.55;;;2.88;;
20014;SDS011;61787;42.022;23.078;2023-02-07T03:57:36;6.80;;;3.80;;
20014;SDS011;61787;42.022;23.078;2023-02-07T03:58:38;6.22;;;3.92;;
20014;SDS011;61787;42.022;23.078;2023-02-07T03:59:40;8.75;;;4.53;;
20014;SDS011;61787;42.022;23.078;2023-02-07T04:00:41;8.57;;;4.43;;
20014;SDS011;61787;42.022;23.078;2023-02-07T04:01:43;4.88;;;3.85;;
20014;SDS011;61787;42.022;23.078;2023-02-07T04:02:44;7.88;;;4.45;;
20014;SDS011;61787;42.022;23.078;2023-02-07T04:03:46;8.13;;;4.10;;
20014;SDS011;61787;42.022;23.078;2023-02-07T04:04:48;6.80;;;4.05;;
20014;SDS011;61787;42.022;23.078;2023-02-07T04:05:49;7.28;;;4.28;;
20014;SDS011;61787;42.022;23.078;2023-02-07T04:06:51;8.43;;;4.57;;
20014;SDS011;61787;42.022;23.078;2023-02-07T04:07:53;6.50;;;4.55;;
20014;SDS011;61787;42.022;23.078;2023-02-07T04:08:55;7.88;;;4.60;;
20014;SDS011;61787;42.022;23.078;2023-02-07T04:09:56;6.90;;;3.88;;
20014;SDS011;61787;42.022;23.078;2023-02-07T04:10:58;6.13;;;4.13;;
20014;SDS011;61787;42.022;23.078;2023-02-07T04:12:01;6.90;;;4.20;;
20014;SDS011;61787;42.022;23.078;2023-02-07T04:13:03;8.90;;;4.70;;
20014;SDS011;61787;42.022;23.078;2023-02-07T04:14:05;8.10;;;4.38;;
20014;SDS011;61787;42.022;23.078;2023-02-07T04:15:06;8.05;;;4.60;;
20014;SDS011;61787;42.022;23.078;2023-02-07T04:16:08;9.15;;;4.70;;
20014;SDS011;61787;42.022;23.078;2023-02-07T04:17:10;9.35;;;5.47;;
20014;SDS011;61787;42.022;23.078;2023-02-07T04:18:12;8.32;;;4.80;;
20014;SDS011;61787;42.022;23.078;2023-02-07T04:19:14;8.18;;;4.80;;
20014;SDS011;61787;42.022;23.078;2023-02-07T04:20:16;9.18;;;4.72;;
20014;SDS011;61787;42.022;23.078;2023-02-07T04:21:18;8.40;;;5.07;;
20014;SDS011;61787;42.022;23.078;2023-02-07T04:22:19;9.32;;;4.68;;
20014;SDS011;61787;42.022;23.078;2023-02-07T04:23:21;7.60;;;5.00;;
20014;SDS011;61787;42.022;23.078;2023-02-07T04:24:22;10.00;;;5.28;;
20014;SDS011;61787;42.022;23.078;2023-02-07T04:25:24;10.93;;;5.72;;
20014;SDS011;61787;42.022;23.078;2023-02-07T04:26:26;9.23;;;5.90;;
20014;SDS011;61787;42.022;23.078;2023-02-07T04:27:27;8.52;;;5.18;;
20014;SDS011;61787;42.022;23.078;2023-02-07T04:28:29;7.95;;;5.05;;
20014;SDS011;61787;42.022;23.078;2023-02-07T04:29:30;9.57;;;5.35;;
20014;SDS011;61787;42.022;23.078;2023-02-07T04:30:32;8.60;;;4.47;;
20014;SDS011;61787;42.022;23.078;2023-02-07T04:31:34;6.38;;;4.43;;
20014;SDS011;61787;42.022;23.078;2023-02-07T04:32:37;8.18;;;4.70;;
20014;SDS011;61787;42.022;23.078;2023-02-07T04:33:39;7.28;;;4.97;;
20014;SDS011;61787;42.022;23.078;2023-02-07T04:34:41;7.22;;;4.88;;
20014;SDS011;61787;42.022;23.078;2023-02-07T04:35:42;8.63;;;5.00;;
20014;SDS011;61787;42.022;23.078;2023-02-07T04:36:44;8.40;;;5.65;;
20014;SDS011;61787;42.022;23.078;2023-02-07T04:37:45;11.38;;;5.93;;
20014;SDS011;61787;42.022;23.078;2023-02-07T04:38:47;9.75;;;5.75;;
20014;SDS011;61787;42.022;23.078;2023-02-07T04:39:48;12.27;;;6.50;;
20014;SDS011;61787;42.022;23.078;2023-02-07T04:40:50;9.48;;;5.05;;
20014;SDS011;61787;42.022;23.078;2023-02-07T04:41:52;9.23;;;5.35;;
20014;SDS011;61787;42.022;23.078;2023-02-07T04:42:54;47.17;;;18.73;;
20014;SDS011;61787;42.022;23.078;2023-02-07T04:43:55;11.77;;;5.57;;
20014;SDS011;61787;42.022;23.078;2023-02-07T04:44:57;11.38;;;5.60;;
20014;SDS011;61787;42.022;23.078;2023-02-07T04:45:59;12.77;;;6.28;;
20014;SDS011;61787;42.022;23.078;2023-02-07T04:47:01;14.48;;;7.13;;
20014;SDS011;61787;42.022;23.078;2023-02-07T04:48:02;13.23;;;6.47;;
20014;SDS011;61787;42.022;23.078;2023-02-07T04:49:04;14.82;;;7.18;;
20014;SDS011;61787;42.022;23.078;2023-02-07T04:50:06;12.75;;;6.15;;
20014;SDS011;61787;42.022;23.078;2023-02-07T04:51:07;13.13;;;6.97;;
20014;SDS011;61787;42.022;23.078;2023-02-07T04:52:09;15.10;;;7.22;;
20014;SDS011;61787;42.022;23.078;2023-02-07T04:53:10;15.35;;;8.00;;
20014;SDS011;61787;42.022;23.078;2023-02-07T04:54:12;14.55;;;7.40;;
20014;SDS011;61787;42.022;23.078;2023-02-07T04:55:14;14.82;;;7.18;;
20014;SDS011;61787;42.022;23.078;2023-02-07T04:56:15;14.82;;;6.85;;
20014;SDS011;61787;42.022;23.078;2023-02-07T04:57:17;16.00;;;7.00;;
20014;SDS011;61787;42.022;23.078;2023-02-07T04:58:19;13.45;;;6.30;;
20014;SDS011;61787;42.022;23.078;2023-02-07T04:59:22;15.07;;;7.30;;
20014;SDS011;61787;42.022;23.078;2023-02-07T05:00:23;10.93;;;6.55;;
20014;SDS011;61787;42.022;23.078;2023-02-07T05:01:25;14.30;;;6.63;;
20014;SDS011;61787;42.022;23.078;2023-02-07T05:02:26;14.18;;;6.32;;
20014;SDS011;61787;42.022;23.078;2023-02-07T05:03:28;11.93;;;6.60;;
20014;SDS011;61787;42.022;23.078;2023-02-07T05:04:29;14.85;;;6.85;;
20014;SDS011;61787;42.022;23.078;2023-02-07T05:05:31;12.02;;;6.47;;
20014;SDS011;61787;42.022;23.078;2023-02-07T05:06:33;13.48;;;6.53;;
20014;SDS011;61787;42.022;23.078;2023-02-07T05:07:34;8.10;;;4.38;;
20014;SDS011;61787;42.022;23.078;2023-02-07T05:08:36;8.15;;;4.60;;
20014;SDS011;61787;42.022;23.078;2023-02-07T05:09:38;8.70;;;4.72;;
20014;SDS011;61787;42.022;23.078;2023-02-07T05:10:39;9.45;;;5.22;;
20014;SDS011;61787;42.022;23.078;2023-02-07T05:11:41;10.18;;;5.13;;
20014;SDS011;61787;42.022;23.078;2023-02-07T05:12:43;9.30;;;4.45;;
20014;SDS011;61787;42.022;23.078;2023-02-07T05:13:45;8.50;;;4.72;;
20014;SDS011;61787;42.022;23.078;2023-02-07T05:14:46;8.18;;;3.30;;
20014;SDS011;61787;42.022;23.078;2023-02-07T05:15:48;5.25;;;3.58;;
20014;SDS011;61787;42.022;23.078;2023-02-07T05:16:50;3.85;;;3.40;;
20014;SDS011;61787;42.022;23.078;2023-02-07T05:17:51;5.28;;;3.10;;
20014;SDS011;61787;42.022;23.078;2023-02-07T05:18:53;7.35;;;3.80;;
20014;SDS011;61787;42.022;23.078;2023-02-07T05:19:55;5.45;;;3.85;;
20014;SDS011;61787;42.022;23.078;2023-02-07T05:20:58;7.57;;;3.70;;
20014;SDS011;61787;42.022;23.078;2023-02-07T05:22:00;7.95;;;4.20;;
20014;SDS011;61787;42.022;23.078;2023-02-07T05:23:01;7.25;;;4.38;;
20014;SDS011;61787;42.022;23.078;2023-02-07T05:24:03;11.40;;;5.00;;
20014;SDS011;61787;42.022;23.078;2023-02-07T05:25:05;8.07;;;4.72;;
20014;SDS011;61787;42.022;23.078;2023-02-07T05:26:06;10.50;;;5.53;;
20014;SDS011;61787;42.022;23.078;2023-02-07T05:27:08;8.57;;;5.18;;
20014;SDS011;61787;42.022;23.078;2023-02-07T05:28:10;9.23;;;4.78;;
20014;SDS011;61787;42.022;23.078;2023-02-07T05:29:12;10.45;;;5.68;;
20014;SDS011;61787;42.022;23.078;2023-02-07T05:30:13;7.35;;;4.82;;
20014;SDS011;61787;42.022;23.078;2023-02-07T05:31:15;7.60;;;4.68;;
20014;SDS011;61787;42.022;23.078;2023-02-07T05:32:17;6.15;;;4.18;;
20014;SDS011;61787;42.022;23.078;2023-02-07T05:33:37;7.45;;;4.38;;
20014;SDS011;61787;42.022;23.078;2023-02-07T05:34:39;9.43;;;5.30;;
20014;SDS011;61787;42.022;23.078;2023-02-07T05:35:42;9.30;;;5.80;;
20014;SDS011;61787;42.022;23.078;2023-02-07T05:36:44;9.95;;;6.10;;
20014;SDS011;61787;42.022;23.078;2023-02-07T05:37:46;9.48;;;5.60;;
20014;SDS011;61787;42.022;23.078;2023-02-07T05:38:48;9.05;;;5.18;;
20014;SDS011;61787;42.022;23.078;2023-02-07T05:39:49;9.25;;;5.05;;
20014;SDS011;61787;42.022;23.078;2023-02-07T05:40:51;7.40;;;4.80;;
20014;SDS011;61787;42.022;23.078;2023-02-07T05:41:53;7.05;;;4.78;;
20014;SDS011;61787;42.022;23.078;2023-02-07T05:42:54;7.75;;;4.72;;
20014;SDS011;61787;42.022;23.078;2023-02-07T05:43:56;8.75;;;5.22;;
20014;SDS011;61787;42.022;23.078;2023-02-07T05:44:57;8.63;;;4.80;;
20014;SDS011;61787;42.022;23.078;2023-02-07T05:45:59;8.57;;;4.72;;
20014;SDS011;61787;42.022;23.078;2023-02-07T05:47:00;8.35;;;4.57;;
20014;SDS011;61787;42.022;23.078;2023-02-07T05:48:02;7.38;;;4.68;;
20014;SDS011;61787;42.022;23.078;2023-02-07T05:49:04;9.25;;;4.78;;
20014;SDS011;61787;42.022;23.078;2023-02-07T05:50:06;7.10;;;4.07;;
20014;SDS011;61787;42.022;23.078;2023-02-07T05:51:08;7.93;;;4.05;;
20014;SDS011;61787;42.022;23.078;2023-02-07T05:52:09;9.20;;;5.05;;
20014;SDS011;61787;42.022;23.078;2023-02-07T05:53:11;6.75;;;4.32;;
20014;SDS011;61787;42.022;23.078;2023-02-07T05:54:13;9.35;;;4.78;;
20014;SDS011;61787;42.022;23.078;2023-02-07T05:55:14;6.07;;;4.20;;
20014;SDS011;61787;42.022;23.078;2023-02-07T05:56:16;10.15;;;5.82;;
20014;SDS011;61787;42.022;23.078;2023-02-07T05:57:18;7.75;;;4.90;;
20014;SDS011;61787;42.022;23.078;2023-02-07T05:58:19;8.77;;;5.70;;
20014;SDS011;61787;42.022;23.078;2023-02-07T05:59:21;8.73;;;5.28;;
20014;SDS011;61787;42.022;23.078;2023-02-07T06:00:23;12.93;;;6.03;;
20014;SDS011;61787;42.022;23.078;2023-02-07T06:01:24;9.05;;;5.45;;
20014;SDS011;61787;42.022;23.078;2023-02-07T06:02:26;7.93;;;5.15;;
20014;SDS011;61787;42.022;23.078;2023-02-07T06:03:28;6.63;;;4.20;;
20014;SDS011;61787;42.022;23.078;2023-02-07T06:04:29;7.57;;;4.00;;
20014;SDS011;61787;42.022;23.078;2023-02-07T06:05:31;6.43;;;4.25;;
20014;SDS011;61787;42.022;23.078;2023-02-07T06:06:34;5.07;;;3.63;;
20014;SDS011;61787;42.022;23.078;2023-02-07T06:07:36;7.68;;;4.00;;
20014;SDS011;61787;42.022;23.078;2023-02-07T06:08:37;6.43;;;3.88;;
20014;SDS011;61787;42.022;23.078;2023-02-07T06:09:39;6.75;;;4.43;;
20014;SDS011;61787;42.022;23.078;2023-02-07T06:10:40;6.90;;;4.32;;
20014;SDS011;61787;42.022;23.078;2023-02-07T06:11:42;9.10;;;4.53;;
20014;SDS011;61787;42.022;23.078;2023-02-07T06:12:44;7.20;;;4.55;;
20014;SDS011;61787;42.022;23.078;2023-02-07T06:13:45;9.32;;;4.47;;
20014;SDS011;61787;42.022;23.078;2023-02-07T06:14:47;10.13;;;4.72;;
20014;SDS011;61787;42.022;23.078;2023-02-07T06:15:49;9.88;;;4.38;;
20014;SDS011;61787;42.022;23.078;2023-02-07T06:16:50;8.00;;;5.40;;
20014;SDS011;61787;42.022;23.078;2023-02-07T06:17:52;14.43;;;5.90;;
20014;SDS011;61787;42.022;23.078;2023-02-07T06:18:53;10.45;;;6.00;;
20014;SDS011;61787;42.022;23.078;2023-02-07T06:19:55;13.75;;;6.97;;
20014;SDS011;61787;42.022;23.078;2023-02-07T06:20:57;14.63;;;7.68;;
20014;SDS011;61787;42.022;23.078;2023-02-07T06:21:58;18.65;;;7.85;;
20014;SDS011;61787;42.022;23.078;2023-02-07T06:23:00;21.05;;;8.80;;
20014;SDS011;61787;42.022;23.078;2023-02-07T06:24:01;19.85;;;9.43;;
20014;SDS011;61787;42.022;23.078;2023-02-07T06:25:03;22.48;;;9.88;;
20014;SDS011;61787;42.022;23.078;2023-02-07T06:26:05;25.27;;;10.30;;
20014;SDS011;61787;42.022;23.078;2023-02-07T06:27:06;22.35;;;10.45;;
20014;SDS011;61787;42.022;23.078;2023-02-07T06:28:08;19.50;;;9.82;;
20014;SDS011;61787;42.022;23.078;2023-02-07T06:29:10;21.55;;;9.52;;
20014;SDS011;61787;42.022;23.078;2023-02-07T06:30:11;22.05;;;9.77;;
20014;SDS011;61787;42.022;23.078;2023-02-07T06:31:13;18.65;;;9.18;;
20014;SDS011;61787;42.022;23.078;2023-02-07T06:32:15;16.95;;;9.07;;
20014;SDS011;61787;42.022;23.078;2023-02-07T06:33:17;16.13;;;8.60;;
20014;SDS011;61787;42.022;23.078;2023-02-07T06:34:19;16.92;;;9.35;;
20014;SDS011;61787;42.022;23.078;2023-02-07T06:35:21;17.92;;;8.45;;
20014;SDS011;61787;42.022;23.078;2023-02-07T06:36:22;17.63;;;8.82;;
20014;SDS011;61787;42.022;23.078;2023-02-07T06:37:24;14.38;;;7.85;;
20014;SDS011;61787;42.022;23.078;2023-02-07T06:38:26;15.30;;;8.25;;
20014;SDS011;61787;42.022;23.078;2023-02-07T06:39:27;21.48;;;9.40;;
20014;SDS011;61787;42.022;23.078;2023-02-07T06:40:29;15.57;;;8.55;;
20014;SDS011;61787;42.022;23.078;2023-02-07T06:41:30;15.20;;;8.55;;
20014;SDS011;61787;42.022;23.078;2023-02-07T06:42:32;15.55;;;8.57;;
20014;SDS011;61787;42.022;23.078;2023-02-07T06:43:33;20.23;;;8.48;;
20014;SDS011;61787;42.022;23.078;2023-02-07T06:44:35;16.95;;;8.90;;
20014;SDS011;61787;42.022;23.078;2023-02-07T06:45:37;18.45;;;8.65;;
20014;SDS011;61787;42.022;23.078;2023-02-07T06:46:39;16.17;;;8.50;;
20014;SDS011;61787;42.022;23.078;2023-02-07T06:47:40;15.85;;;8.35;;
20014;SDS011;61787;42.022;23.078;2023-02-07T06:48:42;21.23;;;9.27;;
20014;SDS011;61787;42.022;23.078;2023-02-07T06:49:43;21.05;;;9.93;;
20014;SDS011;61787;42.022;23.078;2023-02-07T06:50:47;22.85;;;9.88;;